Time;durP1;ratioP1;P1;durP2;ratioP2;P2;SDS_P1;SDS_P2;PMS_P1;PMS_P2;Temp;Humidity;BMP_temperature;BMP_pressure;BME280_temperature;BME280_humidity;BME280_pressure;Samples;Min_cycle;Max_cycle;Signal;HPM_P1;HPM_P2
2021/10/10 00:01:05;;;;;;;24.25;12.02;;;;;;;;;;4988409;28;20107;-82
2021/10/10 00:03:33;;;;;;;27.40;11.27;;;;;;;;;;4988519;28;20100;-82
2021/10/10 00:06:01;;;;;;;20.48;10.57;;;;;;;;;;4987762;28;20102;-81
2021/10/10 00:08:27;;;;;;;21.55;10.57;;;;;;;;;;4991507;28;20051;-80
2021/10/10 00:10:52;;;;;;;25.10;11.10;;;;;;;;;;4987667;28;20501;-83
2021/10/10 00:13:21;;;;;;;23.70;11.38;;;;;;;;;;4990443;28;20041;-83
2021/10/10 00:15:46;;;;;;;25.08;11.95;;;;;;;;;;4995808;28;20034;-83
2021/10/10 00:18:14;;;;;;;23.02;11.13;;;;;;;;;;4999253;28;20389;-82
2021/10/10 00:20:40;;;;;;;23.35;11.32;;;;;;;;;;4995589;28;20038;-82
2021/10/10 00:23:05;;;;;;;26.55;11.95;;;;;;;;;;4979871;28;20113;-82
2021/10/10 00:25:31;;;;;;;24.98;11.20;;;;;;;;;;4984411;28;20034;-83
2021/10/10 00:27:59;;;;;;;26.85;12.65;;;;;;;;;;4997110;28;20038;-81
2021/10/10 00:30:25;;;;;;;22.88;11.98;;;;;;;;;;4992805;28;20026;-83
2021/10/10 00:32:51;;;;;;;24.88;11.85;;;;;;;;;;4981095;28;20037;-83
2021/10/10 00:35:17;;;;;;;24.40;11.68;;;;;;;;;;4999077;28;20026;-83
2021/10/10 00:37:44;;;;;;;24.27;11.05;;;;;;;;;;4998857;28;20077;-83
2021/10/10 00:40:10;;;;;;;23.58;11.27;;;;;;;;;;4982773;28;20042;-81
2021/10/10 00:42:36;;;;;;;24.45;11.57;;;;;;;;;;4981422;28;20044;-80
2021/10/10 00:45:01;;;;;;;25.65;12.25;;;;;;;;;;4978927;28;20034;-82
2021/10/10 00:47:27;;;;;;;23.40;11.13;;;;;;;;;;4994709;28;20026;-81
2021/10/10 00:49:52;;;;;;;21.65;11.13;;;;;;;;;;4994206;28;20089;-81
2021/10/10 00:52:19;;;;;;;26.30;11.77;;;;;;;;;;4993093;28;20030;-80
2021/10/10 00:54:46;;;;;;;21.75;10.38;;;;;;;;;;4989595;28;20489;-82
2021/10/10 00:57:13;;;;;;;23.40;11.77;;;;;;;;;;4971840;28;20028;-81
2021/10/10 00:59:43;;;;;;;27.95;12.00;;;;;;;;;;4977514;28;20026;-81
2021/10/10 01:02:08;;;;;;;25.98;11.05;;;;;;;;;;4976332;28;20113;-82
2021/10/10 01:04:34;;;;;;;24.27;10.93;;;;;;;;;;4994066;28;20467;-82
2021/10/10 01:07:00;;;;;;;22.15;10.68;;;;;;;;;;4992751;28;20034;-81
2021/10/10 01:09:26;;;;;;;26.30;11.45;;;;;;;;;;4975194;28;20038;-82
2021/10/10 01:11:55;;;;;;;20.30;10.63;;;;;;;;;;4991642;28;20486;-81
2021/10/10 01:14:20;;;;;;;22.73;11.35;;;;;;;;;;4992069;28;20032;-81
2021/10/10 01:16:48;;;;;;;24.80;10.70;;;;;;;;;;4991107;28;20371;-81
2021/10/10 01:19:14;;;;;;;26.20;11.80;;;;;;;;;;4978977;28;20427;-81
2021/10/10 01:21:40;;;;;;;24.55;11.02;;;;;;;;;;4991289;28;20053;-80
2021/10/10 01:24:06;;;;;;;23.98;11.57;;;;;;;;;;4989293;28;20025;-80
2021/10/10 01:26:34;;;;;;;30.65;11.57;;;;;;;;;;4990319;28;20050;-81
2021/10/10 01:28:59;;;;;;;25.65;11.38;;;;;;;;;;4987385;28;20030;-81
2021/10/10 01:31:27;;;;;;;25.98;12.35;;;;;;;;;;4981564;28;20624;-81
2021/10/10 01:33:53;;;;;;;22.70;11.27;;;;;;;;;;4992749;28;20367;-81
2021/10/10 01:36:21;;;;;;;23.63;11.85;;;;;;;;;;4993621;28;20026;-82
2021/10/10 01:38:47;;;;;;;27.48;12.23;;;;;;;;;;4996222;28;20401;-80
2021/10/10 01:41:12;;;;;;;21.90;10.35;;;;;;;;;;4992520;28;20056;-81
2021/10/10 01:43:38;;;;;;;26.60;11.50;;;;;;;;;;4993621;28;20024;-81
2021/10/10 01:46:04;;;;;;;24.98;10.93;;;;;;;;;;4993737;28;20030;-81
2021/10/10 01:48:29;;;;;;;28.25;11.98;;;;;;;;;;4977706;28;20038;-83
2021/10/10 01:50:56;;;;;;;31.67;13.50;;;;;;;;;;4979074;28;20048;-81
2021/10/10 01:53:21;;;;;;;28.02;13.77;;;;;;;;;;4992258;28;20029;-82
2021/10/10 01:55:48;;;;;;;29.52;12.25;;;;;;;;;;4977097;28;20783;-82
2021/10/10 01:58:14;;;;;;;26.52;12.20;;;;;;;;;;4975890;28;20026;-82
2021/10/10 02:00:39;;;;;;;23.85;12.07;;;;;;;;;;4990469;28;20030;-80
2021/10/10 02:03:05;;;;;;;26.90;12.52;;;;;;;;;;4970488;28;20030;-81
2021/10/10 02:05:31;;;;;;;24.90;12.85;;;;;;;;;;4979637;28;20121;-80
2021/10/10 02:07:56;;;;;;;34.63;14.23;;;;;;;;;;4974874;28;20034;-80
2021/10/10 02:10:22;;;;;;;27.25;13.00;;;;;;;;;;4992975;28;20398;-81
2021/10/10 02:12:47;;;;;;;26.15;12.32;;;;;;;;;;4992826;28;20119;-81
2021/10/10 02:15:13;;;;;;;29.45;13.13;;;;;;;;;;4992440;28;20033;-81
2021/10/10 02:17:38;;;;;;;25.30;11.68;;;;;;;;;;4972445;28;20049;-81
2021/10/10 02:20:08;;;;;;;26.40;12.77;;;;;;;;;;4971580;28;20084;-81
2021/10/10 02:22:34;;;;;;;24.88;11.95;;;;;;;;;;4989665;28;20370;-82
2021/10/10 02:25:00;;;;;;;26.77;12.68;;;;;;;;;;4995016;28;20030;-81
2021/10/10 02:27:26;;;;;;;24.38;12.77;;;;;;;;;;4994922;28;20072;-81
2021/10/10 02:29:51;;;;;;;31.10;13.63;;;;;;;;;;4995070;28;20101;-80
2021/10/10 02:32:17;;;;;;;25.85;13.05;;;;;;;;;;4991610;28;20034;-81
2021/10/10 02:34:42;;;;;;;29.08;13.02;;;;;;;;;;4988411;28;20026;-80
2021/10/10 02:37:08;;;;;;;30.02;12.10;;;;;;;;;;4972517;28;20030;-81
2021/10/10 02:39:35;;;;;;;31.70;13.43;;;;;;;;;;4990321;28;20120;-82
2021/10/10 02:42:00;;;;;;;24.55;12.45;;;;;;;;;;4976076;28;20576;-80
2021/10/10 02:44:26;;;;;;;24.15;12.25;;;;;;;;;;4989616;28;20026;-81
2021/10/10 02:46:51;;;;;;;24.05;11.88;;;;;;;;;;4975352;28;20034;-81
2021/10/10 02:49:17;;;;;;;28.15;11.90;;;;;;;;;;4988237;28;20422;-81
2021/10/10 02:51:42;;;;;;;27.45;12.88;;;;;;;;;;4976256;28;20394;-81
2021/10/10 02:54:10;;;;;;;31.48;14.02;;;;;;;;;;4991414;28;20109;-81
2021/10/10 02:56:35;;;;;;;30.83;12.32;;;;;;;;;;4972743;28;20557;-81
2021/10/10 02:59:01;;;;;;;28.92;12.85;;;;;;;;;;4988709;28;20125;-80
2021/10/10 03:01:26;;;;;;;28.00;13.15;;;;;;;;;;4971895;28;20066;-81
2021/10/10 03:03:52;;;;;;;25.92;12.75;;;;;;;;;;4987127;28;20429;-81
2021/10/10 03:06:20;;;;;;;23.42;12.02;;;;;;;;;;4974647;28;20057;-80
2021/10/10 03:08:51;;;;;;;24.80;12.45;;;;;;;;;;4974966;28;20234;-81
2021/10/10 03:11:18;;;;;;;28.55;13.07;;;;;;;;;;4991939;28;20048;-79
2021/10/10 03:13:46;;;;;;;28.63;13.32;;;;;;;;;;4975990;28;20121;-80
2021/10/10 03:16:12;;;;;;;27.30;13.30;;;;;;;;;;4986245;28;20470;-81
2021/10/10 03:18:37;;;;;;;34.17;15.35;;;;;;;;;;4974438;28;20036;-81
2021/10/10 03:21:07;;;;;;;32.50;13.57;;;;;;;;;;4990718;28;20108;-81
2021/10/10 03:23:33;;;;;;;32.90;13.07;;;;;;;;;;4996272;28;20029;-81
2021/10/10 03:25:58;;;;;;;26.30;12.40;;;;;;;;;;4972032;28;20034;-81
2021/10/10 03:28:24;;;;;;;29.20;11.75;;;;;;;;;;4992081;28;20061;-79
2021/10/10 03:30:51;;;;;;;27.52;12.23;;;;;;;;;;4969336;28;20118;-80
2021/10/10 03:33:19;;;;;;;28.55;11.80;;;;;;;;;;4988444;28;20026;-79
2021/10/10 03:35:45;;;;;;;25.85;11.88;;;;;;;;;;4992316;28;20101;-80
2021/10/10 03:38:10;;;;;;;27.58;12.27;;;;;;;;;;4988173;28;20562;-80
2021/10/10 03:40:35;;;;;;;22.23;11.55;;;;;;;;;;4992124;28;20385;-81
2021/10/10 03:43:01;;;;;;;23.95;11.43;;;;;;;;;;4988338;28;20030;-79
2021/10/10 03:45:26;;;;;;;26.55;12.45;;;;;;;;;;4989886;28;20117;-80
2021/10/10 03:47:55;;;;;;;25.80;11.35;;;;;;;;;;4978363;28;20057;-81
2021/10/10 03:50:20;;;;;;;28.70;11.70;;;;;;;;;;4997512;28;20023;-79
2021/10/10 03:52:46;;;;;;;24.50;11.80;;;;;;;;;;4996158;28;20105;-80
2021/10/10 03:57:57;;;;;;;23.60;11.13;;;;;;;;;;4990852;28;20088;-81
2021/10/10 04:00:25;;;;;;;25.13;11.27;;;;;;;;;;4976363;28;20041;-82
2021/10/10 04:02:53;;;;;;;25.48;11.88;;;;;;;;;;4980472;28;20028;-80
2021/10/10 04:07:57;;;;;;;27.25;10.73;;;;;;;;;;4991781;28;20034;-82
2021/10/10 04:10:23;;;;;;;23.08;11.38;;;;;;;;;;4993478;28;20562;-81
2021/10/10 04:12:49;;;;;;;26.50;12.00;;;;;;;;;;4979780;28;20125;-80
2021/10/10 04:15:15;;;;;;;25.38;11.90;;;;;;;;;;4992060;28;20057;-82
2021/10/10 04:17:42;;;;;;;22.92;11.32;;;;;;;;;;4997633;28;20041;-82
2021/10/10 04:20:11;;;;;;;26.13;11.55;;;;;;;;;;4975721;28;20022;-80
2021/10/10 04:22:38;;;;;;;26.73;11.48;;;;;;;;;;4992932;28;20118;-82
2021/10/10 04:25:04;;;;;;;26.42;12.60;;;;;;;;;;4973744;28;20136;-81
2021/10/10 04:27:32;;;;;;;22.40;10.88;;;;;;;;;;4973882;28;20030;-82
2021/10/10 04:30:00;;;;;;;27.20;11.30;;;;;;;;;;4995099;28;20205;-80
2021/10/10 04:32:26;;;;;;;26.33;10.90;;;;;;;;;;4991670;28;20027;-81
2021/10/10 04:34:51;;;;;;;26.20;11.95;;;;;;;;;;4990070;28;20076;-81
2021/10/10 04:37:17;;;;;;;27.15;11.38;;;;;;;;;;4995760;28;20022;-80
2021/10/10 04:39:42;;;;;;;24.58;12.32;;;;;;;;;;4978969;28;20354;-82
2021/10/10 04:42:08;;;;;;;22.95;10.82;;;;;;;;;;4995117;28;20499;-81
2021/10/10 04:44:35;;;;;;;24.02;10.48;;;;;;;;;;4989318;28;20022;-81
2021/10/10 04:47:01;;;;;;;22.83;10.75;;;;;;;;;;4989866;28;20105;-81
2021/10/10 04:49:26;;;;;;;25.55;11.35;;;;;;;;;;4993347;28;20022;-82
2021/10/10 04:51:54;;;;;;;23.63;10.93;;;;;;;;;;4991588;28;20034;-81
2021/10/10 04:54:20;;;;;;;26.85;11.40;;;;;;;;;;4996390;28;20026;-80
2021/10/10 04:56:45;;;;;;;27.88;11.63;;;;;;;;;;4995725;28;20125;-81
2021/10/10 04:59:15;;;;;;;25.95;11.32;;;;;;;;;;4994200;28;20393;-82
2021/10/10 05:01:41;;;;;;;29.60;11.45;;;;;;;;;;4996980;28;20076;-82
2021/10/10 05:04:06;;;;;;;22.73;10.68;;;;;;;;;;4996266;28;20489;-81
2021/10/10 05:06:31;;;;;;;32.20;11.32;;;;;;;;;;4991387;28;20486;-80
2021/10/10 05:08:57;;;;;;;24.83;10.25;;;;;;;;;;4999067;28;20398;-79
2021/10/10 05:11:22;;;;;;;30.15;13.38;;;;;;;;;;4977735;28;20474;-79
2021/10/10 05:13:48;;;;;;;31.75;11.68;;;;;;;;;;4993902;28;20034;-78
2021/10/10 05:16:13;;;;;;;26.17;10.77;;;;;;;;;;4996478;28;20089;-79
2021/10/10 05:18:38;;;;;;;24.92;11.00;;;;;;;;;;4992275;28;20030;-79
2021/10/10 05:21:06;;;;;;;24.45;10.00;;;;;;;;;;4979957;28;20025;-80
2021/10/10 05:23:31;;;;;;;25.25;11.38;;;;;;;;;;4995699;28;20031;-79
2021/10/10 05:25:58;;;;;;;25.55;10.90;;;;;;;;;;4994499;28;20125;-79
2021/10/10 05:28:26;;;;;;;28.98;11.90;;;;;;;;;;4989963;28;20553;-81
2021/10/10 05:30:52;;;;;;;23.42;11.45;;;;;;;;;;4991774;28;20034;-79
2021/10/10 05:33:21;;;;;;;22.63;11.40;;;;;;;;;;4993691;28;20041;-80
2021/10/10 05:35:46;;;;;;;24.45;11.02;;;;;;;;;;4993106;28;20081;-78
2021/10/10 05:38:14;;;;;;;25.10;11.30;;;;;;;;;;4992600;28;21659;-80
2021/10/10 05:40:39;;;;;;;25.02;10.63;;;;;;;;;;4998449;28;20110;-77
2021/10/10 05:43:05;;;;;;;22.77;10.95;;;;;;;;;;4995980;28;20057;-79
2021/10/10 05:45:31;;;;;;;23.27;12.05;;;;;;;;;;4991651;28;20226;-79
2021/10/10 05:47:56;;;;;;;28.40;11.93;;;;;;;;;;4985422;28;20085;-80
2021/10/10 05:50:22;;;;;;;22.55;10.93;;;;;;;;;;4994927;28;20113;-78
2021/10/10 05:52:47;;;;;;;29.40;11.93;;;;;;;;;;4991966;28;20038;-80
2021/10/10 05:55:15;;;;;;;27.08;11.85;;;;;;;;;;4998802;28;20038;-80
2021/10/10 06:00:14;;;;;;;23.02;11.48;;;;;;;;;;4995419;28;20058;-78
2021/10/10 06:02:42;;;;;;;27.10;12.07;;;;;;;;;;4992505;28;20030;-80
2021/10/10 06:05:12;;;;;;;33.50;13.15;;;;;;;;;;4997149;28;20564;-80
2021/10/10 06:07:38;;;;;;;25.77;10.98;;;;;;;;;;4995931;28;20118;-80
2021/10/10 06:10:05;;;;;;;32.30;13.45;;;;;;;;;;4981806;28;20117;-80
2021/10/10 06:12:31;;;;;;;31.35;12.95;;;;;;;;;;4997170;28;20474;-80
2021/10/10 06:14:58;;;;;;;26.13;12.85;;;;;;;;;;5007250;28;20030;-78
2021/10/10 06:17:28;;;;;;;26.15;12.20;;;;;;;;;;4993760;28;20021;-79
2021/10/10 06:19:54;;;;;;;26.98;13.00;;;;;;;;;;5004430;28;20117;-79
2021/10/10 06:22:19;;;;;;;27.70;14.02;;;;;;;;;;5003582;28;20133;-77
2021/10/10 06:24:45;;;;;;;38.13;15.25;;;;;;;;;;4993589;28;20485;-79
2021/10/10 06:27:10;;;;;;;33.15;15.90;;;;;;;;;;4995826;28;20033;-81
2021/10/10 06:29:36;;;;;;;26.88;13.88;;;;;;;;;;4994267;28;20030;-77
2021/10/10 06:32:01;;;;;;;30.75;13.77;;;;;;;;;;4991321;28;20503;-78
2021/10/10 06:34:29;;;;;;;32.70;13.60;;;;;;;;;;4992527;28;20022;-79
2021/10/10 06:36:54;;;;;;;29.88;13.77;;;;;;;;;;4994096;28;20018;-80
2021/10/10 06:39:20;;;;;;;29.23;12.63;;;;;;;;;;4977171;28;20038;-79
2021/10/10 06:41:46;;;;;;;30.30;13.38;;;;;;;;;;4977706;28;20041;-76
2021/10/10 06:44:12;;;;;;;33.25;12.65;;;;;;;;;;4975447;28;20049;-77
2021/10/10 06:46:37;;;;;;;29.83;13.45;;;;;;;;;;4994984;28;20490;-78
2021/10/10 06:49:03;;;;;;;29.63;13.60;;;;;;;;;;4993643;28;20030;-78
2021/10/10 06:51:28;;;;;;;28.20;13.07;;;;;;;;;;4993769;28;20474;-77
2021/10/10 06:53:57;;;;;;;35.38;13.43;;;;;;;;;;4992107;28;20025;-77
2021/10/10 06:56:22;;;;;;;33.63;14.32;;;;;;;;;;4991415;28;20030;-79
2021/10/10 06:58:50;;;;;;;30.30;13.35;;;;;;;;;;4992854;28;20088;-77
2021/10/10 07:01:16;;;;;;;29.00;13.10;;;;;;;;;;4994990;28;20026;-80
2021/10/10 07:03:42;;;;;;;34.33;13.75;;;;;;;;;;4991080;28;20430;-80
2021/10/10 07:06:10;;;;;;;32.65;13.68;;;;;;;;;;4998085;28;20100;-78
2021/10/10 07:08:35;;;;;;;31.33;14.27;;;;;;;;;;4993990;28;20071;-79
2021/10/10 07:11:01;;;;;;;37.88;14.38;;;;;;;;;;4980105;28;20053;-78
2021/10/10 07:13:26;;;;;;;35.88;16.33;;;;;;;;;;4996947;28;20038;-80
2021/10/10 07:15:54;;;;;;;31.95;15.23;;;;;;;;;;4980141;28;20474;-79
2021/10/10 07:18:25;;;;;;;37.65;17.70;;;;;;;;;;4998484;28;20040;-80
2021/10/10 07:21:00;;;;;;;32.33;16.80;;;;;;;;;;4992901;28;20030;-80
2021/10/10 07:23:29;;;;;;;42.30;18.05;;;;;;;;;;4994488;28;20079;-81
2021/10/10 07:25:59;;;;;;;38.70;18.40;;;;;;;;;;4998322;28;20116;-80
2021/10/10 07:28:24;;;;;;;37.38;17.80;;;;;;;;;;4995557;28;20092;-80
2021/10/10 07:30:51;;;;;;;46.92;18.10;;;;;;;;;;4992273;28;20520;-80
2021/10/10 07:33:20;;;;;;;39.28;18.42;;;;;;;;;;4978679;28;20390;-81
2021/10/10 07:35:45;;;;;;;44.13;19.10;;;;;;;;;;4991744;28;20383;-83
2021/10/10 07:38:11;;;;;;;43.08;18.05;;;;;;;;;;4975665;28;20038;-82
2021/10/10 07:40:36;;;;;;;39.08;18.63;;;;;;;;;;4993443;28;20057;-82
2021/10/10 07:43:02;;;;;;;40.10;19.23;;;;;;;;;;4996443;28;20026;-80
2021/10/10 07:45:28;;;;;;;45.70;20.35;;;;;;;;;;4975925;28;20161;-80
2021/10/10 07:47:55;;;;;;;45.67;20.77;;;;;;;;;;4982045;28;20070;-81
2021/10/10 07:50:23;;;;;;;46.47;22.50;;;;;;;;;;4996074;28;20033;-80
2021/10/10 07:52:51;;;;;;;49.00;21.27;;;;;;;;;;4977461;28;20026;-81
2021/10/10 07:55:17;;;;;;;46.50;20.98;;;;;;;;;;4990409;28;20118;-82
2021/10/10 07:57:42;;;;;;;42.95;20.67;;;;;;;;;;4995359;28;20034;-80
2021/10/10 08:00:10;;;;;;;47.28;20.83;;;;;;;;;;4995503;28;20022;-80
2021/10/10 08:02:55;;;;;;;43.00;20.63;;;;;;;;;;4977815;28;20062;-79
2021/10/10 08:05:23;;;;;;;44.38;20.35;;;;;;;;;;4996208;28;20030;-80
2021/10/10 08:07:49;;;;;;;41.83;19.85;;;;;;;;;;4990084;28;20037;-79
2021/10/10 08:10:15;;;;;;;46.67;20.73;;;;;;;;;;4985899;28;20101;-80
2021/10/10 08:12:43;;;;;;;44.55;21.38;;;;;;;;;;4981017;28;20121;-79
2021/10/10 08:15:09;;;;;;;46.72;20.55;;;;;;;;;;4995878;28;20041;-79
2021/10/10 08:17:35;;;;;;;39.67;20.30;;;;;;;;;;4978841;28;20060;-82
2021/10/10 08:20:01;;;;;;;43.55;20.23;;;;;;;;;;4994919;28;20030;-79
2021/10/10 08:22:26;;;;;;;39.00;19.02;;;;;;;;;;4991524;28;20023;-81
2021/10/10 08:24:52;;;;;;;44.22;19.98;;;;;;;;;;4993859;28;20053;-80
2021/10/10 08:27:17;;;;;;;45.25;21.58;;;;;;;;;;4995543;28;20030;-82
2021/10/10 08:29:42;;;;;;;40.70;19.85;;;;;;;;;;4993318;28;20398;-80
2021/10/10 08:32:08;;;;;;;43.33;19.23;;;;;;;;;;4998020;28;20060;-80
2021/10/10 08:34:36;;;;;;;44.28;20.15;;;;;;;;;;4995005;28;20074;-80
2021/10/10 08:37:03;;;;;;;42.30;20.17;;;;;;;;;;4979542;28;20056;-80
2021/10/10 08:39:28;;;;;;;41.40;19.90;;;;;;;;;;4978539;28;20026;-79
2021/10/10 08:41:58;;;;;;;37.40;18.67;;;;;;;;;;4978296;28;20029;-79
2021/10/10 08:44:32;;;;;;;38.78;19.67;;;;;;;;;;4978007;28;20022;-79
2021/10/10 08:47:02;;;;;;;40.83;19.50;;;;;;;;;;4993762;28;20041;-78
2021/10/10 08:49:29;;;;;;;35.70;18.73;;;;;;;;;;4979108;28;20055;-77
2021/10/10 08:51:54;;;;;;;41.25;19.42;;;;;;;;;;4992225;28;20709;-78
2021/10/10 08:54:20;;;;;;;47.53;21.08;;;;;;;;;;4992880;28;20022;-79
2021/10/10 08:56:45;;;;;;;41.40;19.55;;;;;;;;;;4992441;28;20022;-79
2021/10/10 08:59:11;;;;;;;37.15;20.02;;;;;;;;;;4995910;28;20117;-81
2021/10/10 09:01:38;;;;;;;39.35;19.90;;;;;;;;;;4977019;28;20113;-80
2021/10/10 09:04:03;;;;;;;37.75;19.50;;;;;;;;;;4988258;28;20077;-80
2021/10/10 09:06:32;;;;;;;39.42;20.35;;;;;;;;;;4992051;28;20521;-81
2021/10/10 09:09:27;;;;;;;46.83;20.33;;;;;;;;;;4992204;28;20030;-77
2021/10/10 09:12:09;;;;;;;37.65;18.63;;;;;;;;;;4992961;28;20045;-78
2021/10/10 09:14:49;;;;;;;38.10;19.83;;;;;;;;;;4993619;28;20398;-79
2021/10/10 09:17:22;;;;;;;37.47;19.40;;;;;;;;;;4991703;28;20033;-78
2021/10/10 09:19:52;;;;;;;38.80;18.98;;;;;;;;;;4981349;28;20034;-83
2021/10/10 09:22:21;;;;;;;37.15;19.40;;;;;;;;;;4995196;28;20063;-77
2021/10/10 09:24:48;;;;;;;34.03;18.73;;;;;;;;;;4992627;28;20538;-80
2021/10/10 09:27:17;;;;;;;37.45;19.10;;;;;;;;;;4979186;28;20037;-81
2021/10/10 09:29:45;;;;;;;40.85;18.58;;;;;;;;;;4997954;28;20038;-78
2021/10/10 09:32:13;;;;;;;35.95;17.75;;;;;;;;;;4994074;28;20109;-80
2021/10/10 09:34:41;;;;;;;38.45;17.83;;;;;;;;;;4995892;28;20494;-78
2021/10/10 09:37:22;;;;;;;33.80;17.27;;;;;;;;;;4990647;28;20490;-78
2021/10/10 09:39:57;;;;;;;38.38;16.75;;;;;;;;;;4997921;28;20026;-79
2021/10/10 09:42:42;;;;;;;41.50;18.13;;;;;;;;;;4990717;28;20034;-79
2021/10/10 09:45:29;;;;;;;33.35;17.75;;;;;;;;;;4986923;28;20394;-80
2021/10/10 09:47:56;;;;;;;34.40;17.63;;;;;;;;;;4998908;28;20052;-79
2021/10/10 09:50:25;;;;;;;24.88;12.55;;;;;;;;;;5007026;28;20061;-78
2021/10/10 09:53:04;;;;;;;25.13;13.90;;;;;;;;;;4994794;28;20029;-79
2021/10/10 09:55:31;;;;;;;36.60;17.15;;;;;;;;;;4994099;28;20026;-77
2021/10/10 09:57:56;;;;;;;33.95;17.73;;;;;;;;;;4989960;28;20113;-79
2021/10/10 10:00:24;;;;;;;29.27;16.85;;;;;;;;;;4975359;28;20550;-79
2021/10/10 10:03:01;;;;;;;30.25;16.58;;;;;;;;;;4992800;28;20030;-77
2021/10/10 10:05:31;;;;;;;33.15;17.73;;;;;;;;;;4976165;28;20045;-77
2021/10/10 10:07:56;;;;;;;;;;;;;;;;;;4987342;28;20058;-79
2021/10/10 10:10:25;;;;;;;33.08;16.77;;;;;;;;;;4992566;28;19948;-78
2021/10/10 10:12:54;;;;;;;37.28;18.13;;;;;;;;;;4981514;28;20027;-77
2021/10/10 10:15:25;;;;;;;;;;;;;;;;;;4992662;28;20030;-78
2021/10/10 10:17:52;;;;;;;34.40;18.08;;;;;;;;;;4991811;28;19979;-78
2021/10/10 10:20:19;;;;;;;38.90;18.52;;;;;;;;;;4976790;28;20045;-81
2021/10/10 10:22:45;;;;;;;39.10;18.70;;;;;;;;;;4991776;28;20030;-80
2021/10/10 10:25:10;;;;;;;39.30;18.10;;;;;;;;;;4995152;28;20037;-79
2021/10/10 10:27:36;;;;;;;43.97;21.40;;;;;;;;;;4997703;28;20033;-79
2021/10/10 10:30:05;;;;;;;63.63;27.17;;;;;;;;;;4992097;28;20419;-79
2021/10/10 10:32:32;;;;;;;82.18;33.35;;;;;;;;;;4974825;28;20026;-81
2021/10/10 10:35:11;;;;;;;44.58;21.95;;;;;;;;;;4977876;28;20077;-79
2021/10/10 10:37:42;;;;;;;49.47;23.48;;;;;;;;;;4991761;28;20045;-80
2021/10/10 10:40:14;;;;;;;40.50;21.67;;;;;;;;;;4988442;28;20161;-79
2021/10/10 10:42:41;;;;;;;40.17;20.33;;;;;;;;;;4976819;28;20453;-80
2021/10/10 10:45:45;;;;;;;39.88;19.23;;;;;;;;;;4994194;28;20073;-79
2021/10/10 10:48:29;;;;;;;36.90;19.13;;;;;;;;;;4934128;29;20079;-79
2021/10/10 10:51:16;;;;;;;30.38;17.75;;;;;;;;;;4991199;28;20463;-81
2021/10/10 10:53:44;;;;;;;30.02;17.15;;;;;;;;;;4979380;28;20413;-80
2021/10/10 10:56:25;;;;;;;35.53;18.25;;;;;;;;;;4980335;28;20058;-77
2021/10/10 10:58:53;;;;;;;36.78;19.17;;;;;;;;;;4999767;28;20048;-80
2021/10/10 11:01:21;;;;;;;41.60;18.80;;;;;;;;;;4976666;28;20033;-80
2021/10/10 11:03:48;;;;;;;40.40;19.17;;;;;;;;;;4991533;28;20045;-78
2021/10/10 11:06:14;;;;;;;34.58;18.15;;;;;;;;;;4975738;28;20065;-80
2021/10/10 11:08:40;;;;;;;30.90;17.95;;;;;;;;;;4993410;28;20054;-79
2021/10/10 11:11:10;;;;;;;32.42;17.35;;;;;;;;;;4977655;28;20035;-79
2021/10/10 11:13:35;;;;;;;35.33;17.88;;;;;;;;;;4977035;28;20027;-81
2021/10/10 11:16:10;;;;;;;35.30;19.08;;;;;;;;;;4991337;28;20042;-79
2021/10/10 11:18:41;;;;;;;30.90;17.40;;;;;;;;;;4988842;28;20030;-80
2021/10/10 11:21:07;;;;;;;31.75;17.90;;;;;;;;;;4984783;28;20149;-81
2021/10/10 11:23:34;;;;;;;38.33;20.98;;;;;;;;;;4994038;28;20014;-77
2021/10/10 11:26:03;;;;;;;34.30;18.17;;;;;;;;;;4978942;28;20034;-81
2021/10/10 11:28:39;;;;;;;31.83;16.85;;;;;;;;;;4978622;28;20478;-79
2021/10/10 11:31:16;;;;;;;31.80;17.85;;;;;;;;;;4994327;28;20098;-79
2021/10/10 11:33:45;;;;;;;32.60;17.70;;;;;;;;;;4971070;28;20037;-80
2021/10/10 11:36:11;;;;;;;31.33;18.60;;;;;;;;;;4989891;28;20117;-80
2021/10/10 11:38:52;;;;;;;37.92;18.42;;;;;;;;;;4990327;28;20030;-81
2021/10/10 11:41:18;;;;;;;27.38;17.00;;;;;;;;;;4992116;28;20060;-80
2021/10/10 11:44:14;;;;;;;35.45;17.88;;;;;;;;;;4974972;28;20026;-79
2021/10/10 11:46:48;;;;;;;31.63;17.55;;;;;;;;;;4987959;28;20064;-79
2021/10/10 11:49:28;;;;;;;25.75;15.48;;;;;;;;;;4973044;28;20030;-79
2021/10/10 11:51:54;;;;;;;32.72;16.70;;;;;;;;;;4991089;28;20093;-79
2021/10/10 11:54:38;;;;;;;31.05;16.38;;;;;;;;;;4990223;28;20117;-78
2021/10/10 11:57:07;;;;;;;33.28;18.60;;;;;;;;;;4973156;28;20041;-80
2021/10/10 11:59:56;;;;;;;64.55;27.67;;;;;;;;;;4994534;28;20105;-78
2021/10/10 12:02:22;;;;;;;54.58;25.75;;;;;;;;;;4988734;28;20585;-79
2021/10/10 12:05:01;;;;;;;28.45;16.63;;;;;;;;;;4995206;28;20030;-81
2021/10/10 12:07:31;;;;;;;30.17;15.57;;;;;;;;;;4973160;28;20045;-80
2021/10/10 12:09:57;;;;;;;25.85;15.60;;;;;;;;;;4978660;28;20116;-80
2021/10/10 12:12:22;;;;;;;33.25;16.58;;;;;;;;;;4995183;28;20185;-80
2021/10/10 12:14:55;;;;;;;27.50;15.35;;;;;;;;;;4994907;28;20389;-79
2021/10/10 12:17:43;;;;;;;27.40;15.95;;;;;;;;;;4979993;28;20026;-79
2021/10/10 12:20:17;;;;;;;25.87;15.60;;;;;;;;;;4992633;28;20113;-79
2021/10/10 12:22:49;;;;;;;28.73;14.65;;;;;;;;;;4999895;28;20037;-79
2021/10/10 12:25:32;;;;;;;28.90;14.82;;;;;;;;;;4978251;28;20030;-79
2021/10/10 12:28:05;;;;;;;20.40;13.02;;;;;;;;;;4979166;28;20114;-77
2021/10/10 12:30:56;;;;;;;23.02;14.10;;;;;;;;;;4980429;28;20022;-78
2021/10/10 12:33:26;;;;;;;25.42;14.65;;;;;;;;;;4997669;28;20026;-79
2021/10/10 12:36:05;;;;;;;24.85;13.45;;;;;;;;;;4978031;28;20031;-80
2021/10/10 12:38:39;;;;;;;22.75;13.60;;;;;;;;;;4978047;28;20054;-79
2021/10/10 12:41:20;;;;;;;29.88;14.55;;;;;;;;;;4997242;28;20109;-79
2021/10/10 12:44:09;;;;;;;29.75;15.35;;;;;;;;;;4985970;28;20026;-80
2021/10/10 12:46:50;;;;;;;38.28;17.88;;;;;;;;;;4986250;28;20058;-80
2021/10/10 12:49:26;;;;;;;30.73;17.48;;;;;;;;;;4981185;28;20490;-81
2021/10/10 12:51:55;;;;;;;26.45;15.00;;;;;;;;;;4994060;28;20031;-78
2021/10/10 12:54:23;;;;;;;19.55;11.85;;;;;;;;;;4995617;28;20018;-80
2021/10/10 12:56:59;;;;;;;22.20;13.30;;;;;;;;;;4996826;28;20038;-80
2021/10/10 12:59:25;;;;;;;35.15;18.17;;;;;;;;;;4994784;28;20106;-81
2021/10/10 13:01:50;;;;;;;39.45;19.00;;;;;;;;;;4995035;28;20058;-78
2021/10/10 13:04:16;;;;;;;40.03;17.75;;;;;;;;;;4996693;28;20532;-81
2021/10/10 13:06:43;;;;;;;26.27;13.50;;;;;;;;;;4993354;28;20382;-81
2021/10/10 13:09:11;;;;;;;21.58;12.80;;;;;;;;;;4997309;28;20022;-81
2021/10/10 13:11:36;;;;;;;19.85;12.50;;;;;;;;;;4998372;28;20459;-81
2021/10/10 13:14:04;;;;;;;31.48;14.32;;;;;;;;;;4982082;28;20044;-80
2021/10/10 13:16:30;;;;;;;39.45;16.05;;;;;;;;;;5000241;28;20390;-81
2021/10/10 13:18:56;;;;;;;23.65;13.57;;;;;;;;;;4997662;28;20393;-79
2021/10/10 13:21:22;;;;;;;28.17;14.30;;;;;;;;;;4997447;28;20053;-79
2021/10/10 13:23:47;;;;;;;37.60;16.40;;;;;;;;;;4975736;28;20080;-79
2021/10/10 13:26:13;;;;;;;28.27;13.88;;;;;;;;;;4996651;28;20447;-80
2021/10/10 13:28:38;;;;;;;21.83;12.23;;;;;;;;;;4978070;28;20136;-80
2021/10/10 13:31:06;;;;;;;23.55;12.35;;;;;;;;;;4977315;28;20048;-79
2021/10/10 13:33:34;;;;;;;26.23;12.65;;;;;;;;;;4992154;28;20018;-79
2021/10/10 13:36:03;;;;;;;26.77;13.40;;;;;;;;;;4982669;28;20030;-79
2021/10/10 13:38:28;;;;;;;30.80;15.30;;;;;;;;;;4990871;28;20092;-79
2021/10/10 13:40:55;;;;;;;32.55;16.98;;;;;;;;;;4979378;28;20033;-78
2021/10/10 13:43:23;;;;;;;27.90;14.60;;;;;;;;;;4995615;28;20054;-79
2021/10/10 13:46:03;;;;;;;21.37;12.63;;;;;;;;;;4996206;28;20104;-78
2021/10/10 13:48:32;;;;;;;15.35;9.75;;;;;;;;;;4993086;28;20343;-80
2021/10/10 13:50:58;;;;;;;20.35;10.75;;;;;;;;;;4984897;28;20122;-79
2021/10/10 13:53:25;;;;;;;19.63;12.50;;;;;;;;;;5001656;28;20449;-80
2021/10/10 13:55:52;;;;;;;16.02;10.48;;;;;;;;;;4997966;28;20034;-82
2021/10/10 13:58:18;;;;;;;15.77;10.65;;;;;;;;;;5004056;28;20053;-80
2021/10/10 14:00:50;;;;;;;17.80;11.10;;;;;;;;;;5000994;28;20033;-81
2021/10/10 14:03:16;;;;;;;18.42;10.65;;;;;;;;;;4979196;28;20386;-81
2021/10/10 14:05:44;;;;;;;19.75;11.45;;;;;;;;;;4999238;28;20034;-81
2021/10/10 14:08:11;;;;;;;17.25;10.27;;;;;;;;;;4983198;28;20385;-80
2021/10/10 14:10:41;;;;;;;19.95;11.35;;;;;;;;;;4993102;28;20038;-79
2021/10/10 14:13:07;;;;;;;22.20;10.98;;;;;;;;;;4980470;28;20030;-80
2021/10/10 14:15:35;;;;;;;15.55;10.10;;;;;;;;;;4999580;28;20065;-79
2021/10/10 14:18:03;;;;;;;18.30;10.40;;;;;;;;;;5000231;28;20061;-79
2021/10/10 14:20:31;;;;;;;18.15;10.18;;;;;;;;;;4983733;28;20022;-79
2021/10/10 14:22:57;;;;;;;21.00;10.05;;;;;;;;;;4978551;28;20022;-79
2021/10/10 14:25:22;;;;;;;20.00;10.45;;;;;;;;;;4995157;28;20097;-80
2021/10/10 14:27:48;;;;;;;15.73;9.73;;;;;;;;;;4996356;28;20051;-79
2021/10/10 14:30:16;;;;;;;19.00;10.20;;;;;;;;;;4994190;28;20113;-80
2021/10/10 14:32:44;;;;;;;20.83;10.90;;;;;;;;;;4996099;28;20078;-81